Time;durP1;ratioP1;P1;durP2;ratioP2;P2;SDS_P1;SDS_P2;PMS_P1;PMS_P2;Temp;Humidity;BMP_temperature;BMP_pressure;BME280_temperature;BME280_humidity;BME280_pressure;Samples;Min_cycle;Max_cycle;Signal;HPM_P1;HPM_P2
2022/05/24 00:23:19;;;;;;;13.15;7.95;;;;;;;;;;10481841;28;20053;-66
2022/05/24 00:28:23;;;;;;;;;;;;;;;;;;10488940;28;20041;-66
2022/05/24 00:33:27;;;;;;;11.48;6.78;;;;;;;;;;10472582;28;20191;-66
2022/05/24 00:38:36;;;;;;;12.20;7.55;;;;;;;;;;10473473;28;20048;-67
2022/05/24 00:43:43;;;;;;;13.82;7.63;;;;;;;;;;10486054;28;20048;-66
2022/05/24 00:48:52;;;;;;;12.15;7.53;;;;;;;;;;10472754;28;20056;-66
2022/05/24 00:53:55;;;;;;;11.60;7.13;;;;;;;;;;10471142;28;20059;-66
2022/05/24 00:59:01;;;;;;;10.82;6.93;;;;;;;;;;10484202;28;20056;-67
2022/05/24 01:04:06;;;;;;;8.88;6.65;;;;;;;;;;10471921;28;20060;-66
2022/05/24 01:09:13;;;;;;;9.13;5.97;;;;;;;;;;10485584;28;20071;-66
2022/05/24 01:14:18;;;;;;;10.45;6.75;;;;;;;;;;10486365;28;20044;-67
2022/05/24 01:19:30;;;;;;;10.02;6.28;;;;;;;;;;10472101;28;20057;-66
2022/05/24 01:24:42;;;;;;;11.00;6.88;;;;;;;;;;10482155;28;20060;-66
2022/05/24 01:29:45;;;;;;;11.35;6.30;;;;;;;;;;10459617;28;20049;-67
2022/05/24 01:40:11;;;;;;;11.20;6.85;;;;;;;;;;10465925;28;20053;-66
2022/05/24 01:45:19;;;;;;;10.57;7.18;;;;;;;;;;10516409;28;20052;-67
2022/05/24 01:50:23;;;;;;;9.77;6.63;;;;;;;;;;10502073;28;20057;-67
2022/05/24 01:55:30;;;;;;;11.27;6.80;;;;;;;;;;10485168;28;20134;-66
2022/05/24 02:00:34;;;;;;;12.27;6.53;;;;;;;;;;10533649;28;20357;-67
2022/05/24 02:05:38;;;;;;;9.90;6.38;;;;;;;;;;10511790;28;20055;-66
2022/05/24 02:10:51;;;;;;;;;;;;;;;;;;10480777;28;20348;-66
2022/05/24 02:15:58;;;;;;;16.25;7.50;;;;;;;;;;10478593;28;19966;-66
2022/05/24 02:21:01;;;;;;;10.85;7.13;;;;;;;;;;10501242;28;20263;-67
2022/05/24 02:26:03;;;;;;;12.10;6.60;;;;;;;;;;10492313;28;20053;-67
2022/05/24 02:31:11;;;;;;;10.38;6.63;;;;;;;;;;10477362;28;20209;-67
2022/05/24 02:36:14;;;;;;;9.25;6.75;;;;;;;;;;10488786;28;20228;-67
2022/05/24 02:41:32;;;;;;;8.30;6.72;;;;;;;;;;10456722;28;20041;-67
2022/05/24 02:46:38;;;;;;;14.50;7.90;;;;;;;;;;10462278;28;20057;-67
2022/05/24 02:51:41;;;;;;;13.48;8.00;;;;;;;;;;10488598;28;20045;-67
2022/05/24 02:56:44;;;;;;;14.70;7.72;;;;;;;;;;10458442;28;20041;-67
2022/05/24 03:01:47;;;;;;;12.48;7.05;;;;;;;;;;10477566;28;20068;-67
2022/05/24 03:17:32;;;;;;;8.80;6.43;;;;;;;;;;10507186;28;20048;-68
2022/05/24 03:22:35;;;;;;;10.00;6.87;;;;;;;;;;10482010;28;20064;-67
2022/05/24 03:27:37;;;;;;;12.77;5.70;;;;;;;;;;10476391;28;20302;-66
2022/05/24 03:32:41;;;;;;;13.98;4.95;;;;;;;;;;10443992;28;20244;-67
2022/05/24 03:37:44;;;;;;;7.93;4.65;;;;;;;;;;10467717;28;20264;-67
2022/05/24 03:42:51;;;;;;;10.50;5.68;;;;;;;;;;10468463;28;20049;-66
2022/05/24 03:47:55;;;;;;;6.93;5.20;;;;;;;;;;10487602;28;20048;-67
2022/05/24 03:52:58;;;;;;;7.28;5.35;;;;;;;;;;10487106;28;20332;-67
2022/05/24 03:58:02;;;;;;;8.30;4.97;;;;;;;;;;10475465;28;20053;-67
2022/05/24 04:03:08;;;;;;;6.50;4.82;;;;;;;;;;10468068;28;20053;-67
2022/05/24 04:08:11;;;;;;;5.57;4.55;;;;;;;;;;10487362;28;20041;-67
2022/05/24 04:13:13;;;;;;;7.55;3.75;;;;;;;;;;10474394;28;20221;-67
2022/05/24 04:18:17;;;;;;;4.20;3.80;;;;;;;;;;10473518;28;20061;-67
2022/05/24 04:23:21;;;;;;;10.20;3.67;;;;;;;;;;10472851;28;20464;-67
2022/05/24 04:28:24;;;;;;;4.82;3.53;;;;;;;;;;10473448;28;20064;-67
2022/05/24 04:33:28;;;;;;;3.60;2.90;;;;;;;;;;10472955;28;20037;-67
2022/05/24 04:38:30;;;;;;;4.65;3.40;;;;;;;;;;10473123;28;20033;-67
2022/05/24 04:43:32;;;;;;;;;;;;;;;;;;10472791;28;20052;-67
2022/05/24 04:48:36;;;;;;;5.90;3.60;;;;;;;;;;10464162;28;20267;-67
2022/05/24 04:53:38;;;;;;;5.10;3.65;;;;;;;;;;10439783;28;20278;-67
2022/05/24 04:58:41;;;;;;;5.30;3.55;;;;;;;;;;10472207;28;20071;-67
2022/05/24 05:03:44;;;;;;;4.87;3.77;;;;;;;;;;10471782;28;20099;-67
2022/05/24 05:08:47;;;;;;;5.25;3.75;;;;;;;;;;10472162;28;20052;-68
2022/05/24 05:13:49;;;;;;;4.63;3.35;;;;;;;;;;10491031;28;20052;-68
2022/05/24 05:18:53;;;;;;;26.27;4.60;;;;;;;;;;10517495;28;20040;-68
2022/05/24 05:23:56;;;;;;;4.47;2.95;;;;;;;;;;10511929;28;20071;-67
2022/05/24 05:28:58;;;;;;;4.68;3.00;;;;;;;;;;10515107;28;20087;-68
2022/05/24 05:34:03;;;;;;;9.32;4.10;;;;;;;;;;10508829;28;20052;-67
2022/05/24 05:39:05;;;;;;;5.57;2.97;;;;;;;;;;10505739;28;20264;-67
2022/05/24 05:44:08;;;;;;;5.53;3.47;;;;;;;;;;10490006;28;20045;-67
2022/05/24 05:49:11;;;;;;;5.25;3.75;;;;;;;;;;10480963;28;20044;-68
2022/05/24 05:54:14;;;;;;;7.43;3.53;;;;;;;;;;10488015;28;20072;-67
2022/05/24 05:59:16;;;;;;;7.78;4.15;;;;;;;;;;10480326;28;20045;-68
2022/05/24 06:04:20;;;;;;;5.17;3.30;;;;;;;;;;10478633;28;20045;-68
2022/05/24 06:09:24;;;;;;;5.25;3.38;;;;;;;;;;10478836;28;20037;-68
2022/05/24 06:14:29;;;;;;;;;;;;;;;;;;10478521;28;20048;-68
2022/05/24 06:19:32;;;;;;;8.95;3.97;;;;;;;;;;10478702;28;19917;-68
2022/05/24 06:24:35;;;;;;;;;;;;;;;;;;10480161;28;20379;-67
2022/05/24 06:29:37;;;;;;;15.07;5.00;;;;;;;;;;10477635;28;19955;-68
2022/05/24 06:34:41;;;;;;;5.60;3.35;;;;;;;;;;10479789;28;20194;-68
2022/05/24 06:39:43;;;;;;;4.72;3.10;;;;;;;;;;10448215;28;20229;-67
2022/05/24 06:44:45;;;;;;;7.40;4.00;;;;;;;;;;10473847;28;20060;-67
2022/05/24 06:49:49;;;;;;;6.32;3.67;;;;;;;;;;10477461;28;20050;-67
2022/05/24 06:54:53;;;;;;;6.82;4.10;;;;;;;;;;10482148;28;20114;-67
2022/05/24 07:05:21;;;;;;;8.82;3.50;;;;;;;;;;10469564;28;20041;-67
2022/05/24 07:10:23;;;;;;;5.30;3.83;;;;;;;;;;10480056;28;20049;-67
2022/05/24 07:15:26;;;;;;;9.55;3.88;;;;;;;;;;10484047;28;20075;-67
2022/05/24 07:20:33;;;;;;;7.18;4.03;;;;;;;;;;10476828;28;20257;-67
2022/05/24 07:25:36;;;;;;;7.68;3.83;;;;;;;;;;10487184;28;20063;-68
2022/05/24 07:30:39;;;;;;;15.43;4.05;;;;;;;;;;10476639;28;20044;-68
2022/05/24 07:35:43;;;;;;;8.67;4.33;;;;;;;;;;10490907;28;20045;-68
2022/05/24 07:46:11;;;;;;;6.97;3.70;;;;;;;;;;10490388;28;20041;-68
2022/05/24 07:51:15;;;;;;;6.03;3.80;;;;;;;;;;10528792;28;20056;-68
2022/05/24 07:56:18;;;;;;;11.75;4.05;;;;;;;;;;10506744;28;20064;-66
2022/05/24 08:01:23;;;;;;;4.53;3.10;;;;;;;;;;10488497;28;20074;-67
2022/05/24 08:06:27;;;;;;;3.30;2.42;;;;;;;;;;10502723;28;20340;-68
2022/05/24 08:11:30;;;;;;;4.45;2.80;;;;;;;;;;10478634;28;20316;-68
2022/05/24 08:16:34;;;;;;;5.05;2.88;;;;;;;;;;10500587;28;20049;-69
2022/05/24 08:21:37;;;;;;;8.68;3.13;;;;;;;;;;10491929;28;20055;-68
2022/05/24 08:26:40;;;;;;;8.77;3.40;;;;;;;;;;10473840;28;20040;-68
2022/05/24 08:31:42;;;;;;;7.93;3.05;;;;;;;;;;10481483;28;20045;-68
2022/05/24 08:36:46;;;;;;;8.50;3.58;;;;;;;;;;10472020;28;20041;-68
2022/05/24 08:42:04;;;;;;;7.30;3.47;;;;;;;;;;10473556;28;20209;-68
2022/05/24 08:52:37;;;;;;;8.88;4.45;;;;;;;;;;10526338;28;20040;-68
2022/05/24 08:57:44;;;;;;;7.75;4.93;;;;;;;;;;10508327;28;20070;-68
2022/05/24 09:02:48;;;;;;;6.10;3.70;;;;;;;;;;10530062;28;20049;-68
2022/05/24 09:08:05;;;;;;;5.60;3.10;;;;;;;;;;10514886;28;20078;-68
2022/05/24 09:13:27;;;;;;;10.20;4.30;;;;;;;;;;10493573;28;20091;-68
2022/05/24 09:18:37;;;;;;;9.90;3.88;;;;;;;;;;10503706;28;20099;-67
2022/05/24 09:23:45;;;;;;;10.07;4.53;;;;;;;;;;10480689;28;20057;-68
2022/05/24 09:28:50;;;;;;;8.38;4.40;;;;;;;;;;10518429;28;20040;-68
2022/05/24 09:33:59;;;;;;;7.25;4.10;;;;;;;;;;10492199;28;20033;-68
2022/05/24 09:39:04;;;;;;;7.38;4.30;;;;;;;;;;10495299;28;20041;-68
2022/05/24 09:44:15;;;;;;;10.63;4.30;;;;;;;;;;10472359;28;20328;-68
2022/05/24 09:49:24;;;;;;;11.57;5.72;;;;;;;;;;10495404;28;20040;-68
2022/05/24 09:54:32;;;;;;;8.68;5.13;;;;;;;;;;10457676;28;20045;-68
2022/05/24 09:59:36;;;;;;;6.75;4.85;;;;;;;;;;10508996;28;20041;-67
2022/05/24 10:04:39;;;;;;;9.13;4.97;;;;;;;;;;10473361;28;20048;-68
2022/05/24 10:09:53;;;;;;;10.80;5.07;;;;;;;;;;10502823;28;20044;-67
2022/05/24 10:15:18;;;;;;;9.85;4.93;;;;;;;;;;10479911;28;20053;-67
2022/05/24 10:20:24;;;;;;;;;;;;;;;;;;10503002;28;20041;-69
2022/05/24 10:25:37;;;;;;;7.93;4.70;;;;;;;;;;10478834;28;20199;-69
2022/05/24 10:30:50;;;;;;;14.20;5.07;;;;;;;;;;10489057;28;20037;-68
2022/05/24 10:41:28;;;;;;;8.30;4.60;;;;;;;;;;10529071;28;20058;-69
2022/05/24 10:46:39;;;;;;;12.20;5.07;;;;;;;;;;10501176;28;20049;-68
2022/05/24 10:51:49;;;;;;;8.07;4.88;;;;;;;;;;10509419;28;20044;-67
2022/05/24 10:56:55;;;;;;;12.75;4.57;;;;;;;;;;10480394;28;20243;-67
2022/05/24 11:02:01;;;;;;;10.43;5.68;;;;;;;;;;10477937;28;20044;-67
2022/05/24 11:07:11;;;;;;;7.03;5.05;;;;;;;;;;10490346;28;20086;-67
2022/05/24 11:12:23;;;;;;;13.82;5.75;;;;;;;;;;10494583;28;20041;-68
2022/05/24 11:17:25;;;;;;;11.38;4.82;;;;;;;;;;10511429;28;20044;-67
2022/05/24 11:22:31;;;;;;;8.63;4.57;;;;;;;;;;10493054;28;20061;-67
2022/05/24 11:27:38;;;;;;;5.25;3.90;;;;;;;;;;10471031;28;20064;-66
2022/05/24 11:32:46;;;;;;;7.60;3.85;;;;;;;;;;10472258;28;20044;-68
2022/05/24 11:37:50;;;;;;;9.48;4.40;;;;;;;;;;10491075;28;20087;-68
2022/05/24 11:42:54;;;;;;;7.35;4.65;;;;;;;;;;10475135;28;20060;-67
2022/05/24 11:48:01;;;;;;;13.63;6.18;;;;;;;;;;10489792;28;20336;-68
2022/05/24 11:53:07;;;;;;;7.10;4.93;;;;;;;;;;10489395;28;20079;-67
2022/05/24 11:58:37;;;;;;;6.43;4.50;;;;;;;;;;10493776;28;20240;-67
2022/05/24 12:09:13;;;;;;;9.55;4.45;;;;;;;;;;10508203;28;20047;-68
2022/05/24 12:14:20;;;;;;;9.03;5.93;;;;;;;;;;10474612;28;20076;-68
2022/05/24 12:19:45;;;;;;;9.75;5.80;;;;;;;;;;10492624;28;20055;-68
2022/05/24 12:25:00;;;;;;;5.53;3.70;;;;;;;;;;10470401;28;20056;-68
2022/05/24 12:30:21;;;;;;;8.32;5.18;;;;;;;;;;10507699;28;20041;-68
2022/05/24 12:35:24;;;;;;;10.52;6.32;;;;;;;;;;10478627;28;20070;-69
2022/05/24 12:40:28;;;;;;;8.67;5.37;;;;;;;;;;10492554;28;20037;-67
2022/05/24 12:45:38;;;;;;;15.98;5.50;;;;;;;;;;10473854;28;20045;-67
2022/05/24 12:50:42;;;;;;;11.25;5.90;;;;;;;;;;10482255;28;20082;-68
2022/05/24 13:01:24;;;;;;;13.95;6.70;;;;;;;;;;10498667;28;20078;-68
2022/05/24 13:06:29;;;;;;;9.40;4.90;;;;;;;;;;10500087;28;20080;-68
2022/05/24 13:11:32;;;;;;;10.23;5.30;;;;;;;;;;10467880;28;20070;-68
2022/05/24 13:16:35;;;;;;;10.32;5.97;;;;;;;;;;10476788;28;20358;-69
2022/05/24 13:21:40;;;;;;;8.20;5.32;;;;;;;;;;10454642;28;20098;-71
2022/05/24 13:27:00;;;;;;;11.05;6.30;;;;;;;;;;10422948;28;20072;-71
2022/05/24 13:37:27;;;;;;;9.02;5.57;;;;;;;;;;10440636;28;20033;-70
2022/05/24 13:42:31;;;;;;;11.95;6.30;;;;;;;;;;10462586;28;20274;-71
2022/05/24 13:47:37;;;;;;;8.07;5.53;;;;;;;;;;10458901;28;20067;-70
2022/05/24 13:52:53;;;;;;;12.07;5.40;;;;;;;;;;10481634;28;20060;-65
2022/05/24 13:57:59;;;;;;;6.22;4.95;;;;;;;;;;10493077;28;20374;-66
2022/05/24 14:03:19;;;;;;;6.75;4.53;;;;;;;;;;10489020;28;20098;-68
2022/05/24 14:08:22;;;;;;;6.80;4.55;;;;;;;;;;10491076;28;20047;-69
2022/05/24 14:13:25;;;;;;;6.23;4.40;;;;;;;;;;10479097;28;20045;-67
2022/05/24 14:18:28;;;;;;;11.95;5.15;;;;;;;;;;10453192;28;20033;-68
2022/05/24 14:23:32;;;;;;;7.18;4.03;;;;;;;;;;10462905;28;20378;-66
2022/05/24 14:28:35;;;;;;;7.50;4.38;;;;;;;;;;10477271;28;20044;-68
2022/05/24 14:33:39;;;;;;;;;;;;;;;;;;10485305;28;20431;-69
2022/05/24 14:38:41;;;;;;;9.88;5.25;;;;;;;;;;10472889;28;20119;-68
2022/05/24 14:43:45;;;;;;;11.02;4.97;;;;;;;;;;10477156;28;20347;-67
2022/05/24 14:48:51;;;;;;;6.15;4.45;;;;;;;;;;10497605;28;20312;-69
2022/05/24 14:53:53;;;;;;;8.55;5.10;;;;;;;;;;10507109;28;20136;-69
2022/05/24 14:58:56;;;;;;;7.85;4.50;;;;;;;;;;10477674;28;20041;-68
2022/05/24 15:03:59;;;;;;;8.63;4.50;;;;;;;;;;10479676;28;20049;-68
2022/05/24 15:19:44;;;;;;;7.95;4.93;;;;;;;;;;10508375;28;20056;-68
2022/05/24 15:24:47;;;;;;;6.55;4.40;;;;;;;;;;10475215;28;20065;-70
2022/05/24 15:29:50;;;;;;;10.32;5.80;;;;;;;;;;10475185;28;20174;-71
2022/05/24 15:34:53;;;;;;;12.93;5.75;;;;;;;;;;10475455;28;20040;-68
2022/05/24 15:39:56;;;;;;;12.60;5.30;;;;;;;;;;10473308;28;20041;-71
2022/05/24 15:44:58;;;;;;;16.20;6.38;;;;;;;;;;10476122;28;20053;-72
2022/05/24 15:50:04;;;;;;;9.45;5.50;;;;;;;;;;10470976;28;20045;-67
2022/05/24 15:55:09;;;;;;;12.65;5.95;;;;;;;;;;10488259;28;20335;-72
2022/05/24 16:00:15;;;;;;;10.65;6.05;;;;;;;;;;10487574;28;20037;-70
2022/05/24 16:15:54;;;;;;;7.18;4.93;;;;;;;;;;11348125;23;20073;-73
2022/05/24 16:20:59;;;;;;;7.55;4.55;;;;;;;;;;10438790;28;20046;-69
2022/05/24 16:26:02;;;;;;;6.82;4.80;;;;;;;;;;10428026;28;20136;-72
2022/05/24 16:31:04;;;;;;;6.88;4.82;;;;;;;;;;10432033;28;20381;-71
2022/05/24 16:36:08;;;;;;;6.75;4.57;;;;;;;;;;10433597;28;20037;-70
2022/05/24 16:41:11;;;;;;;7.18;4.93;;;;;;;;;;10430521;28;20063;-73
2022/05/24 16:46:13;;;;;;;10.23;5.53;;;;;;;;;;10410142;28;20120;-71
2022/05/24 16:51:37;;;;;;;11.38;6.45;;;;;;;;;;10429881;28;20038;-70
2022/05/24 17:02:00;;;;;;;12.18;6.00;;;;;;;;;;10433033;28;20255;-71
2022/05/24 17:07:04;;;;;;;9.70;5.82;;;;;;;;;;10435429;28;20097;-73
2022/05/24 17:12:07;;;;;;;11.10;6.10;;;;;;;;;;10436158;28;20041;-71
2022/05/24 17:17:10;;;;;;;10.57;6.25;;;;;;;;;;10438631;28;20221;-71
2022/05/24 17:22:14;;;;;;;17.00;6.82;;;;;;;;;;10438506;28;20040;-71
2022/05/24 17:27:16;;;;;;;10.23;6.53;;;;;;;;;;10432241;28;20074;-70
2022/05/24 17:32:22;;;;;;;11.18;6.75;;;;;;;;;;10437166;28;20155;-71
2022/05/24 17:37:26;;;;;;;14.55;7.15;;;;;;;;;;10451244;28;20253;-72
2022/05/24 17:42:31;;;;;;;14.00;7.85;;;;;;;;;;10455350;28;20041;-72
2022/05/24 17:47:33;;;;;;;11.43;6.93;;;;;;;;;;10438612;28;20054;-70
2022/05/24 17:52:37;;;;;;;10.68;6.85;;;;;;;;;;10427977;28;20133;-71
2022/05/24 17:57:39;;;;;;;13.47;7.67;;;;;;;;;;10439239;28;20045;-71
2022/05/24 18:02:43;;;;;;;13.57;7.43;;;;;;;;;;10435137;28;20286;-71
2022/05/24 18:07:46;;;;;;;11.90;7.43;;;;;;;;;;10437318;28;20051;-71
2022/05/24 18:12:49;;;;;;;15.00;7.60;;;;;;;;;;10435232;28;20386;-71
2022/05/24 18:17:52;;;;;;;15.45;8.07;;;;;;;;;;10436511;28;20617;-71
2022/05/24 18:23:02;;;;;;;16.38;7.95;;;;;;;;;;10422716;28;20045;-70
2022/05/24 18:33:29;;;;;;;19.33;9.40;;;;;;;;;;10448420;28;20033;-70
2022/05/24 18:38:33;;;;;;;15.05;8.23;;;;;;;;;;10448599;28;20269;-72
2022/05/24 18:43:36;;;;;;;11.00;6.97;;;;;;;;;;10437159;28;20053;-71
2022/05/24 18:48:38;;;;;;;18.92;10.13;;;;;;;;;;10435389;28;20221;-71
2022/05/24 18:53:42;;;;;;;24.08;12.05;;;;;;;;;;10434995;28;20056;-71
2022/05/24 18:58:47;;;;;;;17.80;10.00;;;;;;;;;;10434675;28;20045;-73
2022/05/24 19:03:50;;;;;;;15.73;9.15;;;;;;;;;;10436208;28;20044;-71
2022/05/24 19:08:55;;;;;;;21.88;9.30;;;;;;;;;;10436475;28;20060;-72
2022/05/24 19:13:57;;;;;;;13.18;8.10;;;;;;;;;;10436575;28;20140;-69
2022/05/24 19:19:00;;;;;;;14.43;8.13;;;;;;;;;;10435693;28;20046;-68
2022/05/24 19:24:04;;;;;;;13.90;8.13;;;;;;;;;;10436094;28;20099;-69
2022/05/24 19:29:06;;;;;;;15.93;7.95;;;;;;;;;;10436486;28;20267;-70
2022/05/24 19:34:08;;;;;;;15.93;8.30;;;;;;;;;;10432854;28;20232;-69
2022/05/24 19:44:32;;;;;;;15.77;9.23;;;;;;;;;;10433405;28;20236;-69
2022/05/24 19:49:35;;;;;;;16.90;9.27;;;;;;;;;;10416695;28;20229;-69
2022/05/24 19:54:38;;;;;;;17.75;9.82;;;;;;;;;;10413241;28;20045;-68
2022/05/24 19:59:42;;;;;;;22.73;11.95;;;;;;;;;;10421680;28;20053;-69
2022/05/24 20:10:53;;;;;;;16.98;9.32;;;;;;;;;;10355564;28;20096;-69
2022/05/24 20:16:01;;;;;;;14.77;8.57;;;;;;;;;;10433083;28;20092;-68
2022/05/24 20:21:04;;;;;;;17.88;9.13;;;;;;;;;;10448253;28;20370;-67
2022/05/24 20:26:10;;;;;;;13.23;8.68;;;;;;;;;;10434894;28;20045;-68
2022/05/24 20:31:12;;;;;;;19.98;9.77;;;;;;;;;;10448322;28;20048;-69
2022/05/24 20:36:15;;;;;;;15.35;9.70;;;;;;;;;;10434851;28;20038;-70
2022/05/24 20:41:20;;;;;;;16.30;10.02;;;;;;;;;;10433960;28;20042;-68
2022/05/24 20:46:22;;;;;;;17.30;9.88;;;;;;;;;;10431666;28;20072;-68
2022/05/24 20:51:25;;;;;;;19.42;10.32;;;;;;;;;;10431905;28;20040;-68
2022/05/24 20:56:28;;;;;;;21.02;10.13;;;;;;;;;;10432914;28;20213;-68
2022/05/24 21:01:31;;;;;;;22.15;11.32;;;;;;;;;;10431860;28;20049;-68
2022/05/24 21:06:35;;;;;;;17.17;10.48;;;;;;;;;;10431679;28;20103;-68
2022/05/24 21:11:38;;;;;;;21.77;10.75;;;;;;;;;;10432876;28;20037;-68
2022/05/24 21:16:40;;;;;;;15.27;9.75;;;;;;;;;;10429968;28;20217;-69
2022/05/24 21:21:44;;;;;;;16.98;10.43;;;;;;;;;;10430602;28;20049;-68
2022/05/24 21:32:08;;;;;;;19.83;10.73;;;;;;;;;;10444798;28;20048;-69
2022/05/24 21:37:11;;;;;;;16.23;10.70;;;;;;;;;;10431621;28;20091;-67
2022/05/24 21:42:14;;;;;;;23.93;12.50;;;;;;;;;;10431178;28;20103;-68
2022/05/24 21:47:16;;;;;;;25.08;13.80;;;;;;;;;;10431974;28;20041;-68
2022/05/24 21:52:20;;;;;;;24.15;12.70;;;;;;;;;;10429801;28;20049;-68
2022/05/24 21:57:22;;;;;;;21.70;12.30;;;;;;;;;;10430535;28;20052;-68
2022/05/24 22:02:25;;;;;;;23.48;12.60;;;;;;;;;;10433466;28;20048;-68
2022/05/24 22:07:29;;;;;;;23.00;12.75;;;;;;;;;;10438861;28;20047;-68
2022/05/24 22:12:32;;;;;;;21.27;12.43;;;;;;;;;;10437438;28;20041;-68
2022/05/24 22:17:35;;;;;;;22.63;13.02;;;;;;;;;;10438202;28;20061;-68
2022/05/24 22:22:39;;;;;;;24.20;12.75;;;;;;;;;;10437757;28;20041;-68
2022/05/24 22:27:41;;;;;;;20.00;12.37;;;;;;;;;;10438343;28;20052;-68
2022/05/24 22:32:43;;;;;;;19.33;12.73;;;;;;;;;;10437386;28;20037;-69
2022/05/24 22:37:47;;;;;;;18.67;11.85;;;;;;;;;;10437283;28;20053;-67
2022/05/24 22:42:50;;;;;;;21.50;13.43;;;;;;;;;;10436396;28;20045;-68
2022/05/24 22:47:52;;;;;;;24.42;13.50;;;;;;;;;;10438688;28;20099;-67
2022/05/24 22:52:56;;;;;;;22.13;13.68;;;;;;;;;;10436065;28;20099;-68
2022/05/24 22:57:59;;;;;;;26.70;14.48;;;;;;;;;;10436564;28;20041;-68
2022/05/24 23:03:01;;;;;;;24.67;15.48;;;;;;;;;;10435340;28;20331;-68
2022/05/24 23:08:05;;;;;;;22.45;14.70;;;;;;;;;;10436968;28;20139;-68
2022/05/24 23:13:08;;;;;;;29.05;16.52;;;;;;;;;;10434487;28;20049;-68
2022/05/24 23:18:11;;;;;;;26.50;15.82;;;;;;;;;;10399886;28;20042;-68
2022/05/24 23:23:16;;;;;;;34.08;17.85;;;;;;;;;;10433267;28;20048;-67
2022/05/24 23:28:18;;;;;;;27.65;15.73;;;;;;;;;;10436205;28;20233;-68
2022/05/24 23:33:21;;;;;;;31.65;17.65;;;;;;;;;;10434314;28;20041;-68
2022/05/24 23:38:24;;;;;;;29.60;16.83;;;;;;;;;;10434662;28;20045;-69
2022/05/24 23:43:27;;;;;;;28.77;16.47;;;;;;;;;;10433943;28;20044;-68
2022/05/24 23:48:29;;;;;;;29.33;15.18;;;;;;;;;;10434006;28;20335;-69
2022/05/24 23:53:34;;;;;;;26.27;14.68;;;;;;;;;;10432940;28;20033;-68
2022/05/24 23:58:36;;;;;;;29.83;15.02;;;;;;;;;;10434023;28;20060;-68
